CBQ2 weather

Public forecast

Using degrees Celsius for public forecast. Weather courtesy of forecast.io.

Closest aviation weather report (METAR) to Fort Langley Airport

Closest report is Abbotsford Airport, 11.4 nm (21.2 km) SE. Retrieved 2020/08/12 12:00 UTC (36 minutes ago):

CYXX 121200Z 23005KT 15SM SCT033 SCT053 SCT070 11/09 A2996 RMK SC4SC1AC1 SC TR AC TR SLP148

Closest aviation forecast (TAF) to Fort Langley Airport

Closest forecast is Abbotsford Airport, 11.4 nm (21.2 km) SE. Retrieved 2020/08/12 12:39 UTC (0 seconds ago):

TAF CYXX 121138Z 1212/1312 21006KT P6SM SCT030 BKN050 TEMPO 1214/1221 P6SM -SHRA FM122100 22008KT P6SM SCT050 BECMG 1307/1309 VRB03KT RMK NXT FCST BY 121800Z